createdAt,value
2023-04-30T00:00:08.618Z,14.21
2023-04-30T00:02:38.486Z,14.08
2023-04-30T00:05:06.119Z,13.82
2023-04-30T00:07:33.840Z,14.18
2023-04-30T00:10:01.157Z,13.82
2023-04-30T00:12:28.696Z,14.26
2023-04-30T00:14:56.505Z,14.26
2023-04-30T00:17:23.994Z,15.06
2023-04-30T00:19:51.805Z,14.94
2023-04-30T00:22:19.011Z,14.49
2023-04-30T00:24:46.165Z,13.45
2023-04-30T00:27:13.602Z,13.54
2023-04-30T00:29:41.225Z,13.25
2023-04-30T00:32:08.446Z,13.28
2023-04-30T00:34:35.998Z,13.22
2023-04-30T00:37:03.711Z,13.15
2023-04-30T00:39:30.814Z,12.94
2023-04-30T00:41:59.692Z,13.11
2023-04-30T00:44:26.814Z,13.42
2023-04-30T00:46:54.159Z,13.62
2023-04-30T00:49:22.122Z,13.56
2023-04-30T00:51:49.539Z,14.64
2023-04-30T00:54:16.714Z,13.96
2023-04-30T00:56:44.252Z,13.15
2023-04-30T00:59:11.406Z,13.42
2023-04-30T01:01:38.645Z,13.22
2023-04-30T01:04:06.393Z,13.28
2023-04-30T01:06:33.549Z,13.35
2023-04-30T01:09:01.222Z,13.03
2023-04-30T01:11:33.760Z,13.03
2023-04-30T01:14:16.507Z,13.32
2023-04-30T01:16:47.849Z,12.85
2023-04-30T01:19:18.224Z,12.61
2023-04-30T01:21:45.700Z,12.61
2023-04-30T01:24:25.368Z,12.55
2023-04-30T01:26:53.951Z,12.72
2023-04-30T01:29:21.313Z,12.73
2023-04-30T01:31:48.546Z,12.45
2023-04-30T01:34:16.210Z,12.56
2023-04-30T01:37:02.233Z,12.28
2023-04-30T01:39:38.732Z,12.10
2023-04-30T01:42:06.895Z,12.78
2023-04-30T01:44:34.392Z,12.39
2023-04-30T01:47:05.763Z,13.38
2023-04-30T01:49:54.614Z,13.76
2023-04-30T01:52:35.136Z,13.03
2023-04-30T01:55:09.128Z,12.06
2023-04-30T01:57:44.220Z,12.16
2023-04-30T02:00:12.046Z,11.91
2023-04-30T02:02:40.597Z,11.67
2023-04-30T02:05:08.431Z,11.54
2023-04-30T02:07:42.752Z,11.59
2023-04-30T02:10:12.011Z,11.23
2023-04-30T02:12:39.404Z,11.40
2023-04-30T02:15:07.053Z,11.46
2023-04-30T02:17:34.643Z,11.43
2023-04-30T02:20:01.792Z,11.72
2023-04-30T02:22:29.050Z,12.87
2023-04-30T02:24:57.391Z,13.61
2023-04-30T02:27:25.451Z,13.29
2023-04-30T02:29:52.988Z,12.93
2023-04-30T02:32:20.488Z,12.09
2023-04-30T02:34:47.651Z,12.24
2023-04-30T02:37:14.802Z,11.88
2023-04-30T02:39:42.962Z,12.93
2023-04-30T02:42:28.666Z,13.32
2023-04-30T02:44:56.107Z,13.59
2023-04-30T02:47:23.316Z,13.76
2023-04-30T02:49:50.609Z,13.70
2023-04-30T02:52:18.282Z,11.66
2023-04-30T02:54:45.597Z,10.81
2023-04-30T02:57:12.764Z,12.33
2023-04-30T02:59:40.202Z,12.63
2023-04-30T03:02:07.381Z,12.66
2023-04-30T03:04:34.595Z,12.44
2023-04-30T03:07:03.458Z,12.09
2023-04-30T03:09:31.369Z,12.10
2023-04-30T03:11:58.500Z,12.02
2023-04-30T03:14:26.289Z,12.06
2023-04-30T03:16:53.524Z,12.10
2023-04-30T03:19:25.019Z,11.94
2023-04-30T03:21:52.561Z,11.46
2023-04-30T03:24:19.851Z,11.71
2023-04-30T03:26:47.117Z,11.92
2023-04-30T03:29:14.566Z,11.88
2023-04-30T03:31:42.725Z,11.89
2023-04-30T03:34:09.980Z,11.90
2023-04-30T03:36:37.918Z,12.09
2023-04-30T03:39:05.226Z,12.23
2023-04-30T03:41:33.845Z,12.07
2023-04-30T03:44:01.395Z,11.87
2023-04-30T03:46:28.620Z,11.95
2023-04-30T03:48:56.133Z,11.79
2023-04-30T03:51:23.648Z,11.44
2023-04-30T03:53:50.845Z,11.67
2023-04-30T03:56:18.260Z,11.77
2023-04-30T03:58:45.733Z,11.83
2023-04-30T04:01:12.894Z,12.09
2023-04-30T04:03:40.443Z,11.92
2023-04-30T04:06:07.694Z,11.77
2023-04-30T04:08:36.249Z,11.82
2023-04-30T04:11:03.717Z,12.08
2023-04-30T04:13:31.167Z,12.31
2023-04-30T04:15:59.252Z,12.39
2023-04-30T04:18:26.706Z,12.58
2023-04-30T04:20:54.842Z,12.37
2023-04-30T04:23:22.723Z,12.38
2023-04-30T04:25:50.895Z,12.41
2023-04-30T04:28:18.113Z,12.57
2023-04-30T04:30:45.809Z,12.71
2023-04-30T04:33:13.209Z,12.06
2023-04-30T04:35:40.711Z,11.98
2023-04-30T04:38:08.073Z,12.29
2023-04-30T04:40:36.054Z,12.50
2023-04-30T04:43:03.355Z,11.96
2023-04-30T04:45:31.618Z,12.50
2023-04-30T04:47:59.469Z,12.49
2023-04-30T04:50:27.668Z,12.77
2023-04-30T04:52:55.074Z,12.96
2023-04-30T04:55:23.245Z,12.84
2023-04-30T04:57:50.500Z,12.87
2023-04-30T05:00:18.573Z,12.85
2023-04-30T05:02:46.304Z,12.91
2023-04-30T05:05:13.497Z,13.15
2023-04-30T05:07:40.725Z,13.39
2023-04-30T05:10:08.737Z,13.37
2023-04-30T05:12:35.982Z,13.41
2023-04-30T05:15:04.674Z,13.40
2023-04-30T05:17:32.314Z,13.41
2023-04-30T05:19:59.462Z,13.80
2023-04-30T05:22:26.642Z,14.02
2023-04-30T05:24:54.152Z,13.87
2023-04-30T05:27:21.695Z,13.64
2023-04-30T05:29:48.877Z,13.61
2023-04-30T05:32:16.479Z,13.71
2023-04-30T05:34:43.641Z,13.44
2023-04-30T05:37:12.702Z,13.68
2023-04-30T05:39:40.122Z,14.19
2023-04-30T05:42:07.486Z,14.40
2023-04-30T05:44:34.611Z,14.26
2023-04-30T05:47:02.013Z,13.85
2023-04-30T05:49:29.379Z,13.70
2023-04-30T05:51:56.682Z,13.51
2023-04-30T05:54:24.115Z,13.41
2023-04-30T05:56:51.250Z,12.84
2023-04-30T05:59:18.540Z,13.47
2023-04-30T06:01:48.653Z,13.04
2023-04-30T06:04:16.078Z,13.36
2023-04-30T06:06:43.405Z,13.44
2023-04-30T06:09:10.777Z,13.38
2023-04-30T06:11:39.024Z,13.84
2023-04-30T06:14:07.551Z,13.61
2023-04-30T06:16:34.748Z,13.18
2023-04-30T06:19:02.297Z,13.33
2023-04-30T06:21:29.465Z,14.05
2023-04-30T06:23:56.622Z,14.22
2023-04-30T06:26:24.057Z,14.19
2023-04-30T06:28:51.271Z,14.42
2023-04-30T06:31:18.483Z,14.45
2023-04-30T06:33:45.954Z,14.41
2023-04-30T06:36:13.316Z,14.16
2023-04-30T06:38:40.625Z,13.60
2023-04-30T06:41:08.086Z,14.15
2023-04-30T06:43:35.244Z,14.57
2023-04-30T06:46:02.427Z,14.51
2023-04-30T06:48:29.880Z,14.81
2023-04-30T06:50:57.051Z,14.82
2023-04-30T06:53:24.215Z,14.86
2023-04-30T06:55:52.159Z,14.02
2023-04-30T06:58:19.929Z,14.82
2023-04-30T07:00:47.100Z,14.81
2023-04-30T07:03:14.730Z,15.56
2023-04-30T07:05:42.079Z,15.98
2023-04-30T07:08:09.276Z,16.45
2023-04-30T07:10:36.912Z,17.19
2023-04-30T07:13:04.057Z,16.92
2023-04-30T07:15:31.202Z,17.99
2023-04-30T07:17:58.790Z,18.36
2023-04-30T07:20:26.103Z,18.00
2023-04-30T07:22:54.572Z,17.57
2023-04-30T07:25:22.031Z,18.17
2023-04-30T07:27:49.255Z,18.52
2023-04-30T07:30:16.440Z,18.74
2023-04-30T07:32:44.261Z,18.80
2023-04-30T07:35:11.673Z,18.49
2023-04-30T07:37:41.003Z,18.77
2023-04-30T07:40:17.155Z,19.25
2023-04-30T07:42:46.544Z,19.59
2023-04-30T07:45:14.010Z,20.09
2023-04-30T07:47:43.326Z,20.96
2023-04-30T07:50:10.834Z,20.68
2023-04-30T07:52:38.246Z,18.65
2023-04-30T07:55:05.870Z,19.25
2023-04-30T07:57:33.005Z,20.21
2023-04-30T08:00:00.430Z,19.93
2023-04-30T08:02:27.767Z,20.28
2023-04-30T08:04:55.297Z,20.00
2023-04-30T08:07:22.543Z,20.03
2023-04-30T08:09:49.651Z,20.37
2023-04-30T08:12:17.110Z,19.75
2023-04-30T08:14:44.260Z,20.02
2023-04-30T08:17:12.077Z,20.40
2023-04-30T08:19:39.528Z,20.26
2023-04-30T08:22:06.690Z,19.32
2023-04-30T08:24:33.834Z,20.07
2023-04-30T08:27:03.992Z,20.87
2023-04-30T08:29:31.179Z,20.56
2023-04-30T08:31:58.992Z,20.27
2023-04-30T08:34:26.420Z,20.18
2023-04-30T08:36:53.641Z,20.10
2023-04-30T08:39:21.098Z,20.25
2023-04-30T08:41:51.475Z,21.31
2023-04-30T08:44:18.651Z,19.15
2023-04-30T08:46:46.372Z,20.35
2023-04-30T08:49:13.815Z,19.57
2023-04-30T08:51:41.126Z,18.60
2023-04-30T08:54:09.751Z,18.97
2023-04-30T08:56:37.627Z,19.34
2023-04-30T08:59:04.767Z,18.93
2023-04-30T09:01:31.942Z,19.41
2023-04-30T09:03:59.563Z,19.37
2023-04-30T09:06:27.371Z,19.59
2023-04-30T09:08:54.646Z,19.73
2023-04-30T09:11:22.815Z,19.22
2023-04-30T09:13:51.050Z,18.86
2023-04-30T09:16:18.594Z,18.75
2023-04-30T09:18:47.199Z,18.92
2023-04-30T09:21:14.394Z,19.19
2023-04-30T09:24:00.474Z,18.75
2023-04-30T09:26:31.608Z,18.85
2023-04-30T09:28:59.082Z,18.96
2023-04-30T09:31:26.843Z,18.56
2023-04-30T09:33:54.400Z,18.97
2023-04-30T09:36:21.578Z,19.02
2023-04-30T09:38:48.719Z,18.92
2023-04-30T09:41:23.505Z,18.49
2023-04-30T09:43:51.090Z,18.64
2023-04-30T09:46:22.131Z,18.11
2023-04-30T09:48:58.997Z,17.93
2023-04-30T09:51:27.105Z,18.60
2023-04-30T09:53:54.534Z,19.17
2023-04-30T09:56:23.222Z,19.51
2023-04-30T09:58:52.370Z,19.92
2023-04-30T10:01:20.191Z,19.97
2023-04-30T10:03:48.398Z,19.87
2023-04-30T10:06:16.793Z,20.08
2023-04-30T10:08:45.433Z,19.84
2023-04-30T10:11:16.603Z,19.69
2023-04-30T10:13:46.321Z,19.84
2023-04-30T10:16:24.276Z,20.29
2023-04-30T10:18:52.321Z,20.41
2023-04-30T10:21:21.321Z,20.25
2023-04-30T10:23:48.532Z,20.38
2023-04-30T10:26:16.973Z,20.30
2023-04-30T10:28:44.389Z,20.76
2023-04-30T10:31:11.631Z,20.88
2023-04-30T10:33:49.625Z,20.34
2023-04-30T10:36:47.067Z,20.06
2023-04-30T10:39:15.026Z,20.40
2023-04-30T10:41:44.690Z,20.92
2023-04-30T10:44:12.086Z,20.80
2023-04-30T10:46:39.505Z,20.43
2023-04-30T10:49:07.482Z,20.46
2023-04-30T10:51:51.936Z,20.22
2023-04-30T10:54:23.053Z,20.31
2023-04-30T10:56:50.368Z,20.07
2023-04-30T10:59:17.553Z,20.55
2023-04-30T11:02:01.405Z,19.86
2023-04-30T11:04:28.802Z,20.52
2023-04-30T11:07:07.200Z,20.45
2023-04-30T11:09:40.521Z,20.71
2023-04-30T11:12:15.182Z,19.68
2023-04-30T11:14:43.390Z,19.00
2023-04-30T11:17:11.569Z,20.17
2023-04-30T11:19:51.807Z,20.23
2023-04-30T11:22:19.986Z,20.26
2023-04-30T11:24:49.910Z,20.59
2023-04-30T11:27:27.118Z,20.21
2023-04-30T11:29:55.290Z,20.43
2023-04-30T11:32:23.350Z,20.59
2023-04-30T11:34:50.629Z,20.37
2023-04-30T11:37:34.177Z,21.29
2023-04-30T11:40:02.677Z,21.77
2023-04-30T11:42:31.283Z,21.68
2023-04-30T11:45:07.700Z,22.08
2023-04-30T11:47:38.955Z,22.35
2023-04-30T11:50:07.348Z,22.06
2023-04-30T11:52:34.734Z,21.52
2023-04-30T11:55:05.309Z,21.13
2023-04-30T11:57:35.873Z,21.10
2023-04-30T12:00:10.774Z,21.10
2023-04-30T12:02:39.700Z,20.64
2023-04-30T12:05:33.186Z,20.41
2023-04-30T12:08:04.368Z,20.45
2023-04-30T12:10:31.726Z,20.72
2023-04-30T12:12:58.904Z,20.58
2023-04-30T12:15:27.365Z,20.11
2023-04-30T12:17:55.912Z,19.68
2023-04-30T12:20:23.672Z,19.75
2023-04-30T12:22:51.119Z,18.94
2023-04-30T12:25:18.897Z,19.26
2023-04-30T12:27:46.821Z,19.91
2023-04-30T12:30:14.259Z,19.68
2023-04-30T12:32:42.524Z,19.57
2023-04-30T12:35:14.590Z,19.75
2023-04-30T12:37:45.171Z,19.93
2023-04-30T12:40:13.255Z,20.06
2023-04-30T12:42:43.806Z,20.47
2023-04-30T12:45:11.691Z,21.06
2023-04-30T12:47:40.644Z,20.77
2023-04-30T12:50:12.356Z,21.26
2023-04-30T12:52:40.791Z,21.38
2023-04-30T12:55:14.534Z,21.66
2023-04-30T12:57:42.478Z,20.92
2023-04-30T13:00:09.949Z,21.45
2023-04-30T13:02:37.111Z,21.32
2023-04-30T13:05:04.635Z,21.14
2023-04-30T13:07:40.855Z,20.84
2023-04-30T13:10:08.538Z,21.02
2023-04-30T13:12:35.690Z,21.07
2023-04-30T13:15:03.950Z,20.84
2023-04-30T13:17:31.499Z,20.76
2023-04-30T13:19:58.728Z,21.19
2023-04-30T13:22:29.595Z,20.90
2023-04-30T13:24:57.079Z,21.13
2023-04-30T13:27:24.281Z,21.41
2023-04-30T13:29:51.428Z,21.29
2023-04-30T13:32:18.932Z,21.29
2023-04-30T13:34:46.087Z,21.29
2023-04-30T13:37:13.260Z,21.32
2023-04-30T13:39:40.835Z,21.26
2023-04-30T13:42:08.182Z,21.35
2023-04-30T13:44:36.673Z,21.32
2023-04-30T13:47:04.237Z,21.22
2023-04-30T13:49:32.536Z,20.97
2023-04-30T13:51:59.693Z,21.65
2023-04-30T13:54:27.424Z,21.44
2023-04-30T13:56:55.454Z,21.46
2023-04-30T13:59:23.489Z,21.21
2023-04-30T14:01:50.918Z,21.31
2023-04-30T14:04:18.699Z,20.85
2023-04-30T14:06:46.098Z,21.10
2023-04-30T14:09:13.356Z,21.04
2023-04-30T14:11:41.461Z,20.57
2023-04-30T14:14:08.975Z,20.68
2023-04-30T14:16:36.177Z,20.61
2023-04-30T14:19:03.691Z,20.80
2023-04-30T14:21:33.042Z,20.45
2023-04-30T14:24:00.220Z,20.46
2023-04-30T14:26:27.610Z,20.09
2023-04-30T14:28:54.791Z,20.27
2023-04-30T14:31:22.067Z,20.52
2023-04-30T14:33:49.574Z,21.08
2023-04-30T14:36:16.965Z,21.02
2023-04-30T14:38:44.186Z,21.09
2023-04-30T14:41:12.363Z,21.13
2023-04-30T14:43:39.797Z,20.61
2023-04-30T14:46:07.041Z,20.47
2023-04-30T14:48:34.548Z,20.62
2023-04-30T14:51:01.707Z,20.37
2023-04-30T14:53:28.895Z,20.60
2023-04-30T14:55:56.787Z,20.57
2023-04-30T14:58:23.971Z,20.36
2023-04-30T15:00:51.167Z,20.15
2023-04-30T15:03:18.663Z,20.06
2023-04-30T15:05:46.135Z,20.34
2023-04-30T15:08:13.282Z,20.46
2023-04-30T15:10:40.873Z,20.50
2023-04-30T15:13:08.034Z,20.64
2023-04-30T15:15:37.150Z,20.79
2023-04-30T15:18:05.834Z,20.90
2023-04-30T15:20:33.020Z,20.86
2023-04-30T15:23:00.157Z,21.07
2023-04-30T15:25:27.681Z,21.19
2023-04-30T15:27:54.885Z,21.32
2023-04-30T15:30:22.101Z,21.15
2023-04-30T15:32:50.497Z,20.58
2023-04-30T15:35:17.924Z,21.08
2023-04-30T15:37:45.099Z,21.38
2023-04-30T15:40:15.434Z,20.89
2023-04-30T15:42:42.954Z,20.91
2023-04-30T15:45:10.676Z,20.71
2023-04-30T15:47:38.485Z,20.89
2023-04-30T15:50:06.103Z,20.93
2023-04-30T15:52:33.241Z,20.64
2023-04-30T15:55:00.886Z,20.58
2023-04-30T15:57:28.219Z,20.85
2023-04-30T15:59:56.415Z,20.68
2023-04-30T16:02:24.268Z,20.19
2023-04-30T16:04:51.686Z,20.14
2023-04-30T16:07:18.819Z,19.92
2023-04-30T16:09:48.903Z,20.07
2023-04-30T16:12:16.442Z,19.83
2023-04-30T16:14:43.732Z,20.01
2023-04-30T16:17:11.345Z,19.65
2023-04-30T16:19:38.943Z,19.91
2023-04-30T16:22:06.381Z,20.13
2023-04-30T16:24:33.562Z,19.79
2023-04-30T16:27:01.212Z,19.92
2023-04-30T16:29:28.366Z,19.73
2023-04-30T16:31:56.418Z,19.71
2023-04-30T16:34:23.981Z,20.02
2023-04-30T16:36:51.152Z,20.32
2023-04-30T16:39:18.318Z,20.18
2023-04-30T16:41:47.997Z,20.51
2023-04-30T16:44:15.188Z,20.62
2023-04-30T16:46:43.484Z,20.34
2023-04-30T16:49:11.458Z,20.18
2023-04-30T16:51:38.837Z,20.32
2023-04-30T16:54:06.795Z,19.62
2023-04-30T16:56:34.430Z,20.31
2023-04-30T16:59:01.656Z,20.06
2023-04-30T17:01:29.029Z,19.68
2023-04-30T17:03:56.729Z,19.48
2023-04-30T17:06:23.946Z,19.75
2023-04-30T17:08:53.165Z,19.86
2023-04-30T17:11:23.379Z,19.97
2023-04-30T17:13:50.790Z,20.00
2023-04-30T17:16:18.016Z,19.82
2023-04-30T17:18:45.579Z,20.03
2023-04-30T17:21:12.749Z,20.23
2023-04-30T17:23:40.909Z,20.23
2023-04-30T17:26:08.544Z,20.40
2023-04-30T17:28:37.514Z,20.27
2023-04-30T17:31:07.266Z,19.41
2023-04-30T17:33:35.349Z,19.76
2023-04-30T17:36:02.639Z,19.75
2023-04-30T17:38:30.407Z,19.43
2023-04-30T17:41:00.058Z,19.42
2023-04-30T17:43:27.658Z,19.25
2023-04-30T17:45:56.623Z,19.05
2023-04-30T17:48:24.929Z,18.96
2023-04-30T17:50:52.642Z,18.86
2023-04-30T17:53:19.876Z,18.74
2023-04-30T17:55:47.672Z,18.70
2023-04-30T17:58:15.573Z,18.75
2023-04-30T18:00:44.878Z,18.53
2023-04-30T18:03:13.985Z,18.63
2023-04-30T18:05:42.429Z,18.54
2023-04-30T18:08:10.414Z,18.61
2023-04-30T18:10:38.815Z,18.51
2023-04-30T18:13:07.348Z,18.48
2023-04-30T18:15:34.679Z,18.40
2023-04-30T18:18:02.354Z,17.96
2023-04-30T18:20:29.665Z,17.98
2023-04-30T18:22:56.972Z,18.04
2023-04-30T18:25:24.790Z,18.05
2023-04-30T18:27:52.071Z,17.60
2023-04-30T18:30:19.721Z,17.40
2023-04-30T18:32:47.619Z,17.47
2023-04-30T18:35:14.924Z,17.61
2023-04-30T18:37:42.245Z,17.57
2023-04-30T18:40:09.979Z,16.90
2023-04-30T18:42:38.901Z,17.05
2023-04-30T18:45:06.697Z,17.02
2023-04-30T18:47:34.218Z,16.76
2023-04-30T18:50:01.497Z,17.09
2023-04-30T18:52:28.708Z,17.01
2023-04-30T18:54:57.024Z,17.42
2023-04-30T18:57:24.428Z,17.14
2023-04-30T18:59:52.165Z,16.64
2023-04-30T19:02:21.869Z,16.88
2023-04-30T19:04:50.594Z,16.35
2023-04-30T19:07:18.012Z,17.17
2023-04-30T19:09:48.304Z,17.29
2023-04-30T19:12:15.770Z,17.04
2023-04-30T19:14:43.850Z,17.08
2023-04-30T19:17:13.027Z,17.18
2023-04-30T19:19:41.640Z,17.02
2023-04-30T19:22:09.014Z,16.38
2023-04-30T19:24:37.046Z,15.91
2023-04-30T19:27:04.693Z,15.86
2023-04-30T19:29:32.540Z,16.46
2023-04-30T19:32:00.600Z,16.35
2023-04-30T19:34:27.976Z,15.82
2023-04-30T19:36:56.020Z,16.94
2023-04-30T19:39:29.334Z,16.61
2023-04-30T19:41:57.139Z,17.14
2023-04-30T19:44:25.809Z,17.71
2023-04-30T19:46:55.098Z,17.66
2023-04-30T19:49:26.030Z,17.13
2023-04-30T19:51:54.800Z,16.29
2023-04-30T19:54:23.035Z,15.07
2023-04-30T19:56:53.124Z,14.74
2023-04-30T19:59:21.869Z,14.99
2023-04-30T20:01:49.892Z,15.45
2023-04-30T20:04:17.537Z,16.16
2023-04-30T20:06:44.920Z,15.99
2023-04-30T20:09:12.687Z,15.91
2023-04-30T20:11:41.351Z,15.59
2023-04-30T20:14:09.172Z,15.73
2023-04-30T20:16:36.672Z,15.89
2023-04-30T20:19:04.349Z,16.10
2023-04-30T20:21:32.190Z,15.94
2023-04-30T20:24:00.757Z,15.99
2023-04-30T20:26:28.917Z,15.02
2023-04-30T20:28:56.887Z,14.73
2023-04-30T20:31:25.057Z,14.43
2023-04-30T20:33:53.439Z,14.93
2023-04-30T20:36:21.722Z,14.95
2023-04-30T20:38:49.111Z,14.36
2023-04-30T20:41:17.104Z,14.39
2023-04-30T20:43:44.277Z,14.17
2023-04-30T20:46:13.879Z,14.11
2023-04-30T20:48:41.816Z,14.20
2023-04-30T20:51:09.265Z,14.58
2023-04-30T20:53:36.397Z,15.00
2023-04-30T20:56:04.483Z,14.70
2023-04-30T20:58:31.598Z,13.94
2023-04-30T21:00:58.915Z,13.38
2023-04-30T21:03:27.058Z,13.19
2023-04-30T21:05:54.741Z,13.13
2023-04-30T21:08:21.940Z,13.64
2023-04-30T21:10:50.536Z,13.69
2023-04-30T21:13:17.717Z,14.32
2023-04-30T21:15:45.494Z,14.66
2023-04-30T21:18:12.977Z,15.17
2023-04-30T21:20:40.198Z,15.38
2023-04-30T21:23:07.342Z,14.88
2023-04-30T21:25:36.097Z,15.28
2023-04-30T21:28:03.720Z,15.17
2023-04-30T21:30:31.346Z,14.81
2023-04-30T21:32:59.344Z,14.79
2023-04-30T21:35:27.851Z,14.64
2023-04-30T21:37:55.455Z,14.52
2023-04-30T21:40:22.981Z,14.35
2023-04-30T21:42:50.470Z,13.58
2023-04-30T21:45:18.237Z,13.32
2023-04-30T21:47:47.086Z,13.21
2023-04-30T21:50:14.522Z,12.77
2023-04-30T21:52:41.681Z,12.90
2023-04-30T21:55:09.747Z,13.54
2023-04-30T21:57:36.897Z,13.85
2023-04-30T22:00:07.230Z,14.34
2023-04-30T22:02:35.388Z,14.35
2023-04-30T22:05:04.296Z,14.43
2023-04-30T22:07:31.440Z,14.62
2023-04-30T22:09:58.828Z,14.45
2023-04-30T22:12:26.738Z,14.31
2023-04-30T22:14:56.810Z,14.10
2023-04-30T22:17:24.790Z,14.00
2023-04-30T22:19:52.259Z,13.84
2023-04-30T22:22:19.418Z,14.18
2023-04-30T22:24:46.663Z,14.36
2023-04-30T22:27:14.158Z,14.54
2023-04-30T22:29:41.952Z,14.23
2023-04-30T22:32:09.903Z,14.43
2023-04-30T22:34:38.166Z,14.04
2023-04-30T22:37:05.490Z,13.99
2023-04-30T22:39:32.808Z,14.03
2023-04-30T22:42:00.250Z,12.95
2023-04-30T22:44:27.438Z,12.44
2023-04-30T22:46:57.916Z,13.16
2023-04-30T22:49:31.126Z,13.52
2023-04-30T22:51:59.189Z,13.69
2023-04-30T22:54:26.654Z,13.64
2023-04-30T22:56:53.785Z,13.92
2023-04-30T22:59:23.222Z,14.00
2023-04-30T23:01:50.629Z,14.25
2023-04-30T23:04:17.773Z,14.29
2023-04-30T23:06:45.033Z,13.80
2023-04-30T23:09:12.827Z,13.70
2023-04-30T23:11:40.257Z,13.43
2023-04-30T23:14:08.192Z,13.46
2023-04-30T23:16:35.722Z,13.50
2023-04-30T23:19:02.961Z,13.52
2023-04-30T23:21:30.629Z,13.53
2023-04-30T23:23:58.089Z,13.92
2023-04-30T23:26:25.262Z,13.90
2023-04-30T23:28:52.467Z,13.90
2023-04-30T23:31:19.995Z,13.55
2023-04-30T23:33:47.158Z,13.32
2023-04-30T23:36:14.576Z,12.86
2023-04-30T23:38:42.918Z,12.08
2023-04-30T23:41:10.146Z,12.00
2023-04-30T23:43:37.445Z,11.55
2023-04-30T23:46:04.915Z,11.98
2023-04-30T23:48:32.591Z,12.22
2023-04-30T23:51:03.488Z,12.60
2023-04-30T23:53:31.028Z,12.68
2023-04-30T23:55:58.523Z,12.61
2023-04-30T23:58:25.778Z,12.09
